sensor_id;sensor_type;location;lat;lon;timestamp;pressure;altitude;pressure_sealevel;temperature;humidity
2178;BME280;1095;50.992;6.798;2023-09-19T00:01:43;100184.19;;;16.30;99.82
2178;BME280;1095;50.992;6.798;2023-09-19T00:04:12;100190.88;;;16.26;99.84
2178;BME280;1095;50.992;6.798;2023-09-19T00:06:40;100204.09;;;16.19;100.00
2178;BME280;1095;50.992;6.798;2023-09-19T00:09:08;100198.81;;;16.19;100.00
2178;BME280;1095;50.992;6.798;2023-09-19T00:11:36;100205.72;;;16.20;100.00
2178;BME280;1095;50.992;6.798;2023-09-19T00:14:03;100207.72;;;16.12;100.00
2178;BME280;1095;50.992;6.798;2023-09-19T00:16:30;100201.22;;;16.14;100.00
2178;BME280;1095;50.992;6.798;2023-09-19T00:18:58;100204.06;;;16.13;100.00
2178;BME280;1095;50.992;6.798;2023-09-19T00:21:26;100203.69;;;16.03;100.00
2178;BME280;1095;50.992;6.798;2023-09-19T00:23:53;100207.75;;;15.99;100.00
2178;BME280;1095;50.992;6.798;2023-09-19T00:26:20;100210.97;;;15.94;100.00
2178;BME280;1095;50.992;6.798;2023-09-19T00:28:47;100208.53;;;15.92;100.00
2178;BME280;1095;50.992;6.798;2023-09-19T00:31:14;100207.13;;;15.90;100.00
2178;BME280;1095;50.992;6.798;2023-09-19T00:33:40;100224.75;;;15.83;100.00
2178;BME280;1095;50.992;6.798;2023-09-19T00:36:08;100221.72;;;15.86;100.00
2178;BME280;1095;50.992;6.798;2023-09-19T00:38:36;100212.00;;;16.00;100.00
2178;BME280;1095;50.992;6.798;2023-09-19T00:41:02;100212.59;;;15.95;100.00
2178;BME280;1095;50.992;6.798;2023-09-19T00:43:29;100219.94;;;16.06;100.00
2178;BME280;1095;50.992;6.798;2023-09-19T00:46:00;100222.34;;;16.01;100.00
2178;BME280;1095;50.992;6.798;2023-09-19T00:48:28;100225.63;;;16.03;100.00
2178;BME280;1095;50.992;6.798;2023-09-19T00:50:57;100225.63;;;16.03;100.00
2178;BME280;1095;50.992;6.798;2023-09-19T00:53:25;100224.16;;;16.07;100.00
2178;BME280;1095;50.992;6.798;2023-09-19T00:55:54;100232.50;;;16.04;100.00
2178;BME280;1095;50.992;6.798;2023-09-19T00:58:21;100231.28;;;16.13;100.00
2178;BME280;1095;50.992;6.798;2023-09-19T01:00:48;100223.97;;;16.15;100.00
2178;BME280;1095;50.992;6.798;2023-09-19T01:03:17;100227.22;;;16.17;99.36
2178;BME280;1095;50.992;6.798;2023-09-19T01:05:44;100228.44;;;16.21;99.32
2178;BME280;1095;50.992;6.798;2023-09-19T01:08:10;100237.38;;;16.27;99.45
2178;BME280;1095;50.992;6.798;2023-09-19T01:10:41;100240.22;;;16.25;99.41
2178;BME280;1095;50.992;6.798;2023-09-19T01:13:17;100241.66;;;16.28;99.49
2178;BME280;1095;50.992;6.798;2023-09-19T01:15:52;100238.19;;;16.27;99.34
2178;BME280;1095;50.992;6.798;2023-09-19T01:18:27;100239.41;;;16.25;98.79
2178;BME280;1095;50.992;6.798;2023-09-19T01:21:05;100235.97;;;16.24;98.30
2178;BME280;1095;50.992;6.798;2023-09-19T01:23:49;100246.72;;;16.23;98.51
2178;BME280;1095;50.992;6.798;2023-09-19T01:26:33;100246.09;;;16.14;99.04
2178;BME280;1095;50.992;6.798;2023-09-19T01:29:26;100251.78;;;16.11;98.85
2178;BME280;1095;50.992;6.798;2023-09-19T01:32:04;100248.34;;;16.04;98.81
2178;BME280;1095;50.992;6.798;2023-09-19T01:34:43;100256.47;;;16.03;99.26
2178;BME280;1095;50.992;6.798;2023-09-19T01:37:11;100257.28;;;16.03;98.98
2178;BME280;1095;50.992;6.798;2023-09-19T01:39:38;100256.44;;;15.96;99.07
2178;BME280;1095;50.992;6.798;2023-09-19T01:42:08;100255.44;;;15.97;98.58
2178;BME280;1095;50.992;6.798;2023-09-19T01:44:47;100269.88;;;16.01;97.96
2178;BME280;1095;50.992;6.798;2023-09-19T01:47:21;100267.63;;;15.98;97.66
2178;BME280;1095;50.992;6.798;2023-09-19T01:49:55;100271.50;;;16.02;97.34
2178;BME280;1095;50.992;6.798;2023-09-19T01:52:30;100268.63;;;15.97;97.26
2178;BME280;1095;50.992;6.798;2023-09-19T01:55:06;100266.19;;;15.96;95.92
2178;BME280;1095;50.992;6.798;2023-09-19T01:57:42;100265.38;;;15.95;95.08
2178;BME280;1095;50.992;6.798;2023-09-19T02:00:18;100267.19;;;15.88;95.13
2178;BME280;1095;50.992;6.798;2023-09-19T02:02:48;100258.88;;;15.91;94.38
2178;BME280;1095;50.992;6.798;2023-09-19T02:05:22;100256.81;;;15.86;94.78
2178;BME280;1095;50.992;6.798;2023-09-19T02:07:49;100260.06;;;15.82;95.07
2178;BME280;1095;50.992;6.798;2023-09-19T02:10:16;100267.13;;;15.75;94.94
2178;BME280;1095;50.992;6.798;2023-09-19T02:12:43;100269.38;;;15.78;94.21
2178;BME280;1095;50.992;6.798;2023-09-19T02:15:10;100266.31;;;15.74;94.15
2178;BME280;1095;50.992;6.798;2023-09-19T02:17:37;100269.16;;;15.73;93.62
2178;BME280;1095;50.992;6.798;2023-09-19T02:20:06;100264.28;;;15.70;93.51
2178;BME280;1095;50.992;6.798;2023-09-19T02:22:35;100268.53;;;15.64;93.82
2178;BME280;1095;50.992;6.798;2023-09-19T02:25:02;100281.09;;;15.62;94.01
2178;BME280;1095;50.992;6.798;2023-09-19T02:27:30;100285.53;;;15.55;93.96
2178;BME280;1095;50.992;6.798;2023-09-19T02:29:57;100280.44;;;15.53;93.76
2178;BME280;1095;50.992;6.798;2023-09-19T02:32:24;100293.25;;;15.56;93.86
2178;BME280;1095;50.992;6.798;2023-09-19T02:34:51;100300.91;;;15.51;94.42
2178;BME280;1095;50.992;6.798;2023-09-19T02:37:20;100298.91;;;15.53;94.55
2178;BME280;1095;50.992;6.798;2023-09-19T02:39:46;100302.09;;;15.42;95.04
2178;BME280;1095;50.992;6.798;2023-09-19T02:42:13;100307.16;;;15.44;95.33
2178;BME280;1095;50.992;6.798;2023-09-19T02:44:40;100307.75;;;15.39;95.78
2178;BME280;1095;50.992;6.798;2023-09-19T02:47:06;100295.53;;;15.32;95.86
2178;BME280;1095;50.992;6.798;2023-09-19T02:49:33;100304.88;;;15.34;94.62
2178;BME280;1095;50.992;6.798;2023-09-19T02:52:00;100294.34;;;15.34;94.33
2178;BME280;1095;50.992;6.798;2023-09-19T02:54:30;100301.22;;;15.35;94.10
2178;BME280;1095;50.992;6.798;2023-09-19T02:56:57;100295.34;;;15.33;94.51
2178;BME280;1095;50.992;6.798;2023-09-19T02:59:25;100292.72;;;15.33;94.14
2178;BME280;1095;50.992;6.798;2023-09-19T03:01:51;100299.56;;;15.27;94.18
2178;BME280;1095;50.992;6.798;2023-09-19T03:04:19;100297.72;;;15.21;94.54
2178;BME280;1095;50.992;6.798;2023-09-19T03:06:46;100299.13;;;15.24;94.70
2178;BME280;1095;50.992;6.798;2023-09-19T03:09:14;100304.78;;;15.21;95.04
2178;BME280;1095;50.992;6.798;2023-09-19T03:11:42;100319.59;;;15.22;95.39
2178;BME280;1095;50.992;6.798;2023-09-19T03:14:11;100330.28;;;15.14;96.05
2178;BME280;1095;50.992;6.798;2023-09-19T03:16:40;100333.13;;;15.12;96.67
2178;BME280;1095;50.992;6.798;2023-09-19T03:19:07;100325.38;;;15.04;97.51
2178;BME280;1095;50.992;6.798;2023-09-19T03:21:35;100339.56;;;15.03;97.68
2178;BME280;1095;50.992;6.798;2023-09-19T03:24:04;100346.03;;;15.01;97.97
2178;BME280;1095;50.992;6.798;2023-09-19T03:26:31;100333.28;;;15.04;98.01
2178;BME280;1095;50.992;6.798;2023-09-19T03:29:03;100340.19;;;15.05;97.70
2178;BME280;1095;50.992;6.798;2023-09-19T03:31:31;100331.22;;;15.00;97.57
2178;BME280;1095;50.992;6.798;2023-09-19T03:33:58;100343.16;;;14.96;97.99
2178;BME280;1095;50.992;6.798;2023-09-19T03:36:25;100336.63;;;14.91;98.36
2178;BME280;1095;50.992;6.798;2023-09-19T03:38:53;100339.47;;;14.90;98.50
2178;BME280;1095;50.992;6.798;2023-09-19T03:41:20;100340.28;;;14.90;98.60
2178;BME280;1095;50.992;6.798;2023-09-19T03:43:46;100332.00;;;14.93;98.63
2178;BME280;1095;50.992;6.798;2023-09-19T03:46:14;100329.97;;;14.96;98.84
2178;BME280;1095;50.992;6.798;2023-09-19T03:48:41;100330.84;;;15.03;98.82
2178;BME280;1095;50.992;6.798;2023-09-19T03:51:08;100340.38;;;15.04;98.77
2178;BME280;1095;50.992;6.798;2023-09-19T03:53:36;100335.25;;;14.96;98.78
2178;BME280;1095;50.992;6.798;2023-09-19T03:56:02;100339.50;;;14.97;98.80
2178;BME280;1095;50.992;6.798;2023-09-19T03:58:29;100333.63;;;14.94;98.86
2178;BME280;1095;50.992;6.798;2023-09-19T04:00:56;100335.88;;;14.98;98.94
2178;BME280;1095;50.992;6.798;2023-09-19T04:03:24;100344.34;;;14.93;98.71
2178;BME280;1095;50.992;6.798;2023-09-19T04:06:00;100337.03;;;14.88;99.18
2178;BME280;1095;50.992;6.798;2023-09-19T04:08:27;100339.47;;;14.90;99.16
2178;BME280;1095;50.992;6.798;2023-09-19T04:10:53;100328.09;;;14.89;99.28
2178;BME280;1095;50.992;6.798;2023-09-19T04:13:21;100339.28;;;14.91;99.42
2178;BME280;1095;50.992;6.798;2023-09-19T04:15:47;100338.66;;;14.89;99.57
2178;BME280;1095;50.992;6.798;2023-09-19T04:18:14;100331.69;;;14.82;99.55
2178;BME280;1095;50.992;6.798;2023-09-19T04:20:48;100337.03;;;14.88;99.57
2178;BME280;1095;50.992;6.798;2023-09-19T04:23:14;100329.69;;;14.84;99.13
2178;BME280;1095;50.992;6.798;2023-09-19T04:25:42;100332.31;;;14.84;98.88
2178;BME280;1095;50.992;6.798;2023-09-19T04:28:09;100328.00;;;14.76;99.37
2178;BME280;1095;50.992;6.798;2023-09-19T04:30:36;100331.19;;;14.72;99.08
2178;BME280;1095;50.992;6.798;2023-09-19T04:33:06;100338.91;;;14.73;99.10
2178;BME280;1095;50.992;6.798;2023-09-19T04:35:33;100326.13;;;14.70;98.86
2178;BME280;1095;50.992;6.798;2023-09-19T04:38:01;100331.38;;;14.70;98.73
2178;BME280;1095;50.992;6.798;2023-09-19T04:40:28;100338.25;;;14.65;98.19
2178;BME280;1095;50.992;6.798;2023-09-19T04:42:56;100343.72;;;14.63;98.09
2178;BME280;1095;50.992;6.798;2023-09-19T04:45:28;100342.94;;;14.69;97.87
2178;BME280;1095;50.992;6.798;2023-09-19T04:47:55;100343.56;;;14.71;97.30
2178;BME280;1095;50.992;6.798;2023-09-19T04:50:22;100346.16;;;14.65;97.23
2178;BME280;1095;50.992;6.798;2023-09-19T04:52:53;100343.94;;;14.68;96.94
2178;BME280;1095;50.992;6.798;2023-09-19T04:55:21;100343.53;;;14.65;97.42
2178;BME280;1095;50.992;6.798;2023-09-19T04:57:49;100350.63;;;14.71;97.30
2178;BME280;1095;50.992;6.798;2023-09-19T05:00:18;100347.34;;;14.62;96.97
2178;BME280;1095;50.992;6.798;2023-09-19T05:02:49;100356.47;;;14.66;96.81
2178;BME280;1095;50.992;6.798;2023-09-19T05:05:16;100347.72;;;14.59;96.98
2178;BME280;1095;50.992;6.798;2023-09-19T05:07:44;100354.44;;;14.62;97.33
2178;BME280;1095;50.992;6.798;2023-09-19T05:10:11;100357.91;;;14.69;97.08
2178;BME280;1095;50.992;6.798;2023-09-19T05:12:40;100354.28;;;14.70;96.89
2178;BME280;1095;50.992;6.798;2023-09-19T05:15:08;100349.81;;;14.70;96.66
2178;BME280;1095;50.992;6.798;2023-09-19T05:17:35;100344.94;;;14.67;96.56
2178;BME280;1095;50.992;6.798;2023-09-19T05:20:11;100356.34;;;14.74;96.26
2178;BME280;1095;50.992;6.798;2023-09-19T05:23:02;100366.25;;;14.72;95.96
2178;BME280;1095;50.992;6.798;2023-09-19T05:25:31;100365.50;;;14.78;95.83
2178;BME280;1095;50.992;6.798;2023-09-19T05:27:59;100374.59;;;14.76;95.59
2178;BME280;1095;50.992;6.798;2023-09-19T05:30:28;100384.75;;;14.79;95.34
2178;BME280;1095;50.992;6.798;2023-09-19T05:32:55;100381.94;;;14.80;95.19
2178;BME280;1095;50.992;6.798;2023-09-19T05:35:22;100384.75;;;14.79;95.05
2178;BME280;1095;50.992;6.798;2023-09-19T05:37:50;100383.00;;;14.86;94.96
2178;BME280;1095;50.992;6.798;2023-09-19T05:40:17;100384.88;;;14.92;94.55
2178;BME280;1095;50.992;6.798;2023-09-19T05:42:45;100386.13;;;14.96;94.20
2178;BME280;1095;50.992;6.798;2023-09-19T05:45:13;100387.94;;;14.96;94.07
2178;BME280;1095;50.992;6.798;2023-09-19T05:47:47;100391.78;;;14.93;94.16
2178;BME280;1095;50.992;6.798;2023-09-19T05:50:14;100388.13;;;14.94;94.42
2178;BME280;1095;50.992;6.798;2023-09-19T05:52:42;100402.81;;;15.03;93.95
2178;BME280;1095;50.992;6.798;2023-09-19T05:55:10;100401.75;;;14.98;94.01
2178;BME280;1095;50.992;6.798;2023-09-19T05:57:37;100407.00;;;14.98;93.68
2178;BME280;1095;50.992;6.798;2023-09-19T06:00:08;100409.28;;;15.01;93.92
2178;BME280;1095;50.992;6.798;2023-09-19T06:02:37;100408.84;;;14.97;93.66
2178;BME280;1095;50.992;6.798;2023-09-19T06:05:06;100414.53;;;15.01;93.91
2178;BME280;1095;50.992;6.798;2023-09-19T06:07:35;100429.97;;;15.04;93.97
2178;BME280;1095;50.992;6.798;2023-09-19T06:10:03;100433.69;;;15.16;93.74
2178;BME280;1095;50.992;6.798;2023-09-19T06:12:32;100433.25;;;15.12;93.48
2178;BME280;1095;50.992;6.798;2023-09-19T06:15:03;100435.13;;;15.12;93.61
2178;BME280;1095;50.992;6.798;2023-09-19T06:17:31;100443.88;;;15.19;93.77
2178;BME280;1095;50.992;6.798;2023-09-19T06:19:59;100449.25;;;15.32;93.79
2178;BME280;1095;50.992;6.798;2023-09-19T06:22:25;100445.56;;;15.26;93.81
2178;BME280;1095;50.992;6.798;2023-09-19T06:24:52;100457.03;;;15.40;93.11
2178;BME280;1095;50.992;6.798;2023-09-19T06:27:19;100443.34;;;15.30;92.93
2178;BME280;1095;50.992;6.798;2023-09-19T06:29:47;100446.97;;;15.50;92.69
2178;BME280;1095;50.992;6.798;2023-09-19T06:32:13;100449.03;;;15.55;92.19
2178;BME280;1095;50.992;6.798;2023-09-19T06:34:40;100456.78;;;15.56;92.13
2178;BME280;1095;50.992;6.798;2023-09-19T06:37:09;100454.81;;;15.72;92.24
2178;BME280;1095;50.992;6.798;2023-09-19T06:39:36;100451.72;;;15.62;92.07
2178;BME280;1095;50.992;6.798;2023-09-19T06:42:04;100455.22;;;15.69;91.74
2178;BME280;1095;50.992;6.798;2023-09-19T06:45:03;100448.84;;;15.91;91.15
2178;BME280;1095;50.992;6.798;2023-09-19T06:47:54;100441.16;;;15.96;90.39
2178;BME280;1095;50.992;6.798;2023-09-19T06:51:04;100440.56;;;15.94;90.62
2178;BME280;1095;50.992;6.798;2023-09-19T06:57:27;100425.00;;;16.19;89.73
2178;BME280;1095;50.992;6.798;2023-09-19T07:00:36;100418.34;;;16.30;88.48
2178;BME280;1095;50.992;6.798;2023-09-19T07:03:21;100421.47;;;16.53;87.72
2178;BME280;1095;50.992;6.798;2023-09-19T07:05:57;100424.31;;;16.58;87.08
2178;BME280;1095;50.992;6.798;2023-09-19T07:08:40;100399.09;;;16.55;87.21
2178;BME280;1095;50.992;6.798;2023-09-19T07:11:20;100420.91;;;16.64;87.69
2178;BME280;1095;50.992;6.798;2023-09-19T07:14:16;100442.31;;;16.96;87.11
2178;BME280;1095;50.992;6.798;2023-09-19T07:17:26;100432.94;;;17.13;85.74
2178;BME280;1095;50.992;6.798;2023-09-19T07:20:01;100424.41;;;17.17;85.13
2178;BME280;1095;50.992;6.798;2023-09-19T07:22:42;100431.31;;;17.18;84.38
2178;BME280;1095;50.992;6.798;2023-09-19T07:28:04;100424.00;;;17.40;84.38
2178;BME280;1095;50.992;6.798;2023-09-19T07:30:50;100425.22;;;17.31;83.81
2178;BME280;1095;50.992;6.798;2023-09-19T07:33:31;100405.06;;;17.30;83.69
2178;BME280;1095;50.992;6.798;2023-09-19T07:36:54;100419.09;;;17.37;83.52
2178;BME280;1095;50.992;6.798;2023-09-19T07:40:07;100413.41;;;17.34;82.92
2178;BME280;1095;50.992;6.798;2023-09-19T07:42:38;100423.94;;;17.73;82.06
2178;BME280;1095;50.992;6.798;2023-09-19T07:45:17;100403.69;;;17.99;80.98
2178;BME280;1095;50.992;6.798;2023-09-19T07:47:49;100404.63;;;18.62;79.15
2178;BME280;1095;50.992;6.798;2023-09-19T07:50:42;100416.06;;;18.87;78.62
2178;BME280;1095;50.992;6.798;2023-09-19T07:53:21;100415.53;;;19.04;77.01
2178;BME280;1095;50.992;6.798;2023-09-19T07:58:42;100400.69;;;19.21;76.26
2178;BME280;1095;50.992;6.798;2023-09-19T08:01:19;100425.59;;;19.20;76.48
2178;BME280;1095;50.992;6.798;2023-09-19T08:10:06;100422.53;;;18.92;76.56
2178;BME280;1095;50.992;6.798;2023-09-19T08:12:38;100425.91;;;19.30;76.60
2178;BME280;1095;50.992;6.798;2023-09-19T08:15:11;100434.75;;;19.24;76.90
2178;BME280;1095;50.992;6.798;2023-09-19T08:17:39;100426.22;;;19.40;75.51
2178;BME280;1095;50.992;6.798;2023-09-19T08:20:07;100425.09;;;19.54;74.86
2178;BME280;1095;50.992;6.798;2023-09-19T08:22:42;100406.31;;;19.31;74.18
2178;BME280;1095;50.992;6.798;2023-09-19T08:25:12;100425.03;;;19.61;74.31
2178;BME280;1095;50.992;6.798;2023-09-19T08:27:39;100434.28;;;19.02;74.93
2178;BME280;1095;50.992;6.798;2023-09-19T08:30:06;100429.28;;;19.19;75.21
2178;BME280;1095;50.992;6.798;2023-09-19T08:32:33;100434.16;;;19.22;75.76
2178;BME280;1095;50.992;6.798;2023-09-19T08:35:01;100430.06;;;19.44;74.92
2178;BME280;1095;50.992;6.798;2023-09-19T08:37:29;100437.13;;;19.50;75.21
2178;BME280;1095;50.992;6.798;2023-09-19T08:39:56;100427.41;;;19.44;74.40
2178;BME280;1095;50.992;6.798;2023-09-19T08:42:23;100421.22;;;19.50;73.54
2178;BME280;1095;50.992;6.798;2023-09-19T08:44:50;100424.50;;;19.52;73.62
2178;BME280;1095;50.992;6.798;2023-09-19T08:47:25;100417.50;;;19.95;73.15
2178;BME280;1095;50.992;6.798;2023-09-19T08:50:04;100421.13;;;19.64;73.25
2178;BME280;1095;50.992;6.798;2023-09-19T08:52:41;100437.84;;;20.01;72.54
2178;BME280;1095;50.992;6.798;2023-09-19T08:55:12;100425.59;;;20.00;72.17
2178;BME280;1095;50.992;6.798;2023-09-19T08:57:43;100412.41;;;20.11;71.31
2178;BME280;1095;50.992;6.798;2023-09-19T09:00:15;100417.19;;;20.21;70.73
2178;BME280;1095;50.992;6.798;2023-09-19T09:02:43;100420.03;;;20.38;70.45
2178;BME280;1095;50.992;6.798;2023-09-19T09:05:12;100433.06;;;19.73;71.13
2178;BME280;1095;50.992;6.798;2023-09-19T09:07:40;100428.19;;;20.25;70.42
2178;BME280;1095;50.992;6.798;2023-09-19T09:10:07;100419.66;;;20.34;69.12
2178;BME280;1095;50.992;6.798;2023-09-19T09:12:35;100433.03;;;20.28;69.70
2178;BME280;1095;50.992;6.798;2023-09-19T09:15:05;100427.84;;;20.33;69.93
2178;BME280;1095;50.992;6.798;2023-09-19T09:17:34;100414.91;;;20.36;68.93
2178;BME280;1095;50.992;6.798;2023-09-19T09:20:00;100415.72;;;20.37;69.44
2178;BME280;1095;50.992;6.798;2023-09-19T09:22:30;100418.72;;;20.59;69.04
2178;BME280;1095;50.992;6.798;2023-09-19T09:24:58;100428.00;;;20.68;69.04
2178;BME280;1095;50.992;6.798;2023-09-19T09:27:29;100388.38;;;20.66;67.38
2178;BME280;1095;50.992;6.798;2023-09-19T09:29:57;100406.28;;;20.71;67.71
2178;BME280;1095;50.992;6.798;2023-09-19T09:32:27;100391.16;;;20.71;66.98
2178;BME280;1095;50.992;6.798;2023-09-19T09:34:55;100394.28;;;20.38;67.16
2178;BME280;1095;50.992;6.798;2023-09-19T09:37:24;100391.38;;;20.81;66.48
2178;BME280;1095;50.992;6.798;2023-09-19T09:39:56;100401.69;;;20.78;66.26
2178;BME280;1095;50.992;6.798;2023-09-19T09:42:30;100402.63;;;20.24;67.06
2178;BME280;1095;50.992;6.798;2023-09-19T09:45:16;100402.97;;;20.45;67.16
2178;BME280;1095;50.992;6.798;2023-09-19T09:47:46;100409.41;;;20.38;67.11
2178;BME280;1095;50.992;6.798;2023-09-19T09:50:28;100413.34;;;20.17;67.23
2178;BME280;1095;50.992;6.798;2023-09-19T09:53:20;100407.06;;;20.30;67.30
2178;BME280;1095;50.992;6.798;2023-09-19T09:56:01;100419.06;;;20.50;67.65
2178;BME280;1095;50.992;6.798;2023-09-19T09:58:31;100390.75;;;20.26;66.29
2178;BME280;1095;50.992;6.798;2023-09-19T10:00:58;100420.72;;;20.63;67.36
2178;BME280;1095;50.992;6.798;2023-09-19T10:03:33;100401.63;;;20.54;nan
2178;BME280;1095;50.992;6.798;2023-09-19T10:06:04;100399.69;;;20.32;66.02
2178;BME280;1095;50.992;6.798;2023-09-19T10:09:06;100396.31;;;20.06;66.81
2178;BME280;1095;50.992;6.798;2023-09-19T10:11:44;100403.69;;;20.23;67.85
2178;BME280;1095;50.992;6.798;2023-09-19T10:14:19;100404.50;;;20.23;67.58
2178;BME280;1095;50.992;6.798;2023-09-19T10:16:50;100409.31;;;20.44;68.04
2178;BME280;1095;50.992;6.798;2023-09-19T10:19:33;100404.81;;;20.45;68.27
2178;BME280;1095;50.992;6.798;2023-09-19T10:22:04;100404.28;;;20.54;68.50
2178;BME280;1095;50.992;6.798;2023-09-19T10:24:35;100391.97;;;20.72;67.36
2178;BME280;1095;50.992;6.798;2023-09-19T10:27:06;100372.97;;;20.57;66.28
2178;BME280;1095;50.992;6.798;2023-09-19T10:29:34;100376.00;;;20.83;66.57
2178;BME280;1095;50.992;6.798;2023-09-19T10:32:03;100382.94;;;20.84;66.77
2178;BME280;1095;50.992;6.798;2023-09-19T10:34:31;100384.28;;;20.52;66.57
2178;BME280;1095;50.992;6.798;2023-09-19T10:37:02;100380.25;;;20.61;66.39
2178;BME280;1095;50.992;6.798;2023-09-19T10:39:31;100369.53;;;20.68;66.60
2178;BME280;1095;50.992;6.798;2023-09-19T10:42:02;100377.97;;;20.65;67.30
2178;BME280;1095;50.992;6.798;2023-09-19T10:44:36;100365.03;;;20.68;66.83
2178;BME280;1095;50.992;6.798;2023-09-19T10:47:05;100360.75;;;20.67;66.42
2178;BME280;1095;50.992;6.798;2023-09-19T10:49:32;100347.91;;;20.64;66.15
2178;BME280;1095;50.992;6.798;2023-09-19T10:52:00;100353.00;;;20.77;65.70
2178;BME280;1095;50.992;6.798;2023-09-19T10:54:32;100374.38;;;20.71;67.28
2178;BME280;1095;50.992;6.798;2023-09-19T10:57:05;100385.75;;;21.01;66.88
2178;BME280;1095;50.992;6.798;2023-09-19T10:59:35;100361.88;;;20.60;66.28
2178;BME280;1095;50.992;6.798;2023-09-19T11:02:16;100361.88;;;20.60;66.58
2178;BME280;1095;50.992;6.798;2023-09-19T11:04:44;100369.28;;;20.69;66.45
2178;BME280;1095;50.992;6.798;2023-09-19T11:07:13;100368.25;;;20.82;65.97
2178;BME280;1095;50.992;6.798;2023-09-19T11:09:44;100355.75;;;20.82;65.82
2178;BME280;1095;50.992;6.798;2023-09-19T11:12:12;100364.22;;;20.79;66.49
2178;BME280;1095;50.992;6.798;2023-09-19T11:14:41;100371.97;;;20.69;66.75
2178;BME280;1095;50.992;6.798;2023-09-19T11:17:37;100367.00;;;20.84;66.61
2178;BME280;1095;50.992;6.798;2023-09-19T11:20:19;100365.50;;;21.12;67.05
2178;BME280;1095;50.992;6.798;2023-09-19T11:23:17;100357.06;;;20.92;66.38
2178;BME280;1095;50.992;6.798;2023-09-19T11:25:48;100371.88;;;20.99;66.43
2178;BME280;1095;50.992;6.798;2023-09-19T11:28:31;100355.56;;;20.96;65.42
2178;BME280;1095;50.992;6.798;2023-09-19T11:31:41;100367.44;;;20.70;65.83
2178;BME280;1095;50.992;6.798;2023-09-19T11:34:46;100376.81;;;20.72;66.34
2178;BME280;1095;50.992;6.798;2023-09-19T11:40:45;100372.78;;;20.93;65.81
2178;BME280;1095;50.992;6.798;2023-09-19T11:43:31;100375.34;;;21.11;65.10
2178;BME280;1095;50.992;6.798;2023-09-19T11:46:09;100353.72;;;21.08;63.93
2178;BME280;1095;50.992;6.798;2023-09-19T11:48:38;100348.84;;;21.05;63.96
2178;BME280;1095;50.992;6.798;2023-09-19T11:51:11;100352.47;;;21.22;64.10
2178;BME280;1095;50.992;6.798;2023-09-19T11:53:45;100354.53;;;21.32;62.65
2178;BME280;1095;50.992;6.798;2023-09-19T11:56:14;100352.06;;;21.53;62.79
2178;BME280;1095;50.992;6.798;2023-09-19T11:58:43;100363.06;;;21.69;63.37
2178;BME280;1095;50.992;6.798;2023-09-19T12:01:13;100356.75;;;21.75;62.54
2178;BME280;1095;50.992;6.798;2023-09-19T12:03:47;100343.75;;;21.38;59.59
2178;BME280;1095;50.992;6.798;2023-09-19T12:06:18;100345.72;;;21.43;60.49
2178;BME280;1095;50.992;6.798;2023-09-19T12:08:45;100348.16;;;21.33;59.23
2178;BME280;1095;50.992;6.798;2023-09-19T12:11:17;100345.03;;;21.47;59.99
2178;BME280;1095;50.992;6.798;2023-09-19T12:13:48;100355.66;;;21.59;60.75
2178;BME280;1095;50.992;6.798;2023-09-19T12:16:20;100327.19;;;21.48;60.20
2178;BME280;1095;50.992;6.798;2023-09-19T12:18:55;100336.78;;;21.61;60.17
2178;BME280;1095;50.992;6.798;2023-09-19T12:21:27;100332.75;;;21.58;58.97
2178;BME280;1095;50.992;6.798;2023-09-19T12:24:11;100319.75;;;21.62;59.27
2178;BME280;1095;50.992;6.798;2023-09-19T12:26:41;100318.88;;;21.44;59.06
2178;BME280;1095;50.992;6.798;2023-09-19T12:29:14;100338.41;;;21.62;60.22
2178;BME280;1095;50.992;6.798;2023-09-19T12:31:52;100302.53;;;21.52;59.02
2178;BME280;1095;50.992;6.798;2023-09-19T12:34:26;100322.91;;;21.47;59.36
2178;BME280;1095;50.992;6.798;2023-09-19T12:37:10;100329.16;;;21.52;60.36
2178;BME280;1095;50.992;6.798;2023-09-19T12:39:46;100316.63;;;21.65;59.21
2178;BME280;1095;50.992;6.798;2023-09-19T12:42:17;100314.06;;;21.70;59.22
2178;BME280;1095;50.992;6.798;2023-09-19T12:44:45;100319.22;;;21.76;59.59
2178;BME280;1095;50.992;6.798;2023-09-19T12:47:18;100284.78;;;21.70;59.39
2178;BME280;1095;50.992;6.798;2023-09-19T12:50:11;100300.78;;;21.86;59.15
2178;BME280;1095;50.992;6.798;2023-09-19T12:52:43;100291.31;;;21.79;59.24
2178;BME280;1095;50.992;6.798;2023-09-19T12:55:23;100289.34;;;21.58;59.48
2178;BME280;1095;50.992;6.798;2023-09-19T12:58:26;100297.78;;;21.83;59.66
2178;BME280;1095;50.992;6.798;2023-09-19T13:01:36;100288.84;;;21.89;60.49
2178;BME280;1095;50.992;6.798;2023-09-19T13:04:41;100274.19;;;21.75;58.87
2178;BME280;1095;50.992;6.798;2023-09-19T13:07:52;100283.91;;;21.81;59.75
2178;BME280;1095;50.992;6.798;2023-09-19T13:11:10;100262.75;;;22.03;59.33
2178;BME280;1095;50.992;6.798;2023-09-19T13:14:16;100281.19;;;21.93;58.78
2178;BME280;1095;50.992;6.798;2023-09-19T13:38:47;100282.72;;;22.34;58.57
2178;BME280;1095;50.992;6.798;2023-09-19T13:42:01;100282.34;;;22.42;59.04
2178;BME280;1095;50.992;6.798;2023-09-19T13:48:23;100261.97;;;22.02;58.77
2178;BME280;1095;50.992;6.798;2023-09-19T13:51:15;100265.66;;;22.01;59.49
2178;BME280;1095;50.992;6.798;2023-09-19T13:54:11;100273.50;;;22.25;59.38
2178;BME280;1095;50.992;6.798;2023-09-19T13:57:07;100279.03;;;22.35;59.33
2178;BME280;1095;50.992;6.798;2023-09-19T14:00:03;100273.22;;;22.21;59.31
2178;BME280;1095;50.992;6.798;2023-09-19T14:03:22;100285.16;;;21.90;59.77
2178;BME280;1095;50.992;6.798;2023-09-19T14:06:25;100311.81;;;21.78;61.06
2178;BME280;1095;50.992;6.798;2023-09-19T14:12:40;100287.84;;;21.50;61.06
2178;BME280;1095;50.992;6.798;2023-09-19T14:22:40;100320.13;;;21.53;62.38
2178;BME280;1095;50.992;6.798;2023-09-19T14:25:17;100317.00;;;21.57;63.43
2178;BME280;1095;50.992;6.798;2023-09-19T14:28:10;100290.28;;;21.51;62.91
2178;BME280;1095;50.992;6.798;2023-09-19T14:30:45;100276.88;;;21.35;62.65
2178;BME280;1095;50.992;6.798;2023-09-19T14:33:19;100307.97;;;21.58;62.39
2178;BME280;1095;50.992;6.798;2023-09-19T14:35:48;100295.16;;;21.43;62.92
2178;BME280;1095;50.992;6.798;2023-09-19T14:38:19;100313.09;;;21.76;63.01
2178;BME280;1095;50.992;6.798;2023-09-19T14:41:01;100302.66;;;21.86;62.31